createdAt,value
2022-12-26T00:01:01.882Z,77010.06
2022-12-26T00:03:30.588Z,77012.09
2022-12-26T00:05:58.551Z,77014.16
2022-12-26T00:08:26.432Z,77010.06
2022-12-26T00:10:54.284Z,77003.94
2022-12-26T00:13:37.101Z,77006.00
2022-12-26T00:16:12.019Z,77016.19
2022-12-26T00:18:40.651Z,77024.34
2022-12-26T00:21:09.878Z,77024.34
2022-12-26T00:23:38.680Z,77032.50
2022-12-26T00:26:08.798Z,77024.34
2022-12-26T00:28:37.149Z,77028.41
2022-12-26T00:31:06.616Z,77036.59
2022-12-26T00:33:36.549Z,77036.59
2022-12-26T00:36:06.103Z,77030.47
2022-12-26T00:38:35.217Z,77036.59
2022-12-26T00:41:03.433Z,77036.59
2022-12-26T00:43:31.678Z,77028.41
2022-12-26T00:45:59.777Z,77028.41
2022-12-26T00:48:28.605Z,77036.59
2022-12-26T00:50:58.140Z,77030.47
2022-12-26T00:53:26.856Z,77036.59
2022-12-26T00:55:54.683Z,77036.59
2022-12-26T00:58:23.289Z,77038.63
2022-12-26T01:00:51.885Z,77036.59
2022-12-26T01:03:20.618Z,77042.69
2022-12-26T01:05:49.873Z,77040.66
2022-12-26T01:08:24.617Z,77042.69
2022-12-26T01:10:53.353Z,77044.75
2022-12-26T01:13:21.302Z,77044.75
2022-12-26T01:15:50.620Z,77044.75
2022-12-26T01:18:18.652Z,77040.66
2022-12-26T01:20:46.581Z,77046.78
2022-12-26T01:23:14.506Z,77040.66
2022-12-26T01:26:16.444Z,77036.59
2022-12-26T01:28:31.736Z,77038.63
2022-12-26T01:31:02.781Z,77044.75
2022-12-26T01:33:30.990Z,77040.66
2022-12-26T01:35:59.257Z,77044.75
2022-12-26T01:38:27.093Z,77042.69
2022-12-26T01:41:10.224Z,77040.66
2022-12-26T01:43:56.416Z,77040.66
2022-12-26T01:46:31.907Z,77036.59
2022-12-26T01:49:03.054Z,77032.50
2022-12-26T01:51:34.632Z,77034.53
2022-12-26T01:54:39.010Z,77028.41
2022-12-26T01:56:55.510Z,77036.59
2022-12-26T01:59:27.415Z,77032.50
2022-12-26T02:01:56.525Z,77038.63
2022-12-26T02:04:47.151Z,77040.66
2022-12-26T02:07:15.201Z,77036.59
2022-12-26T02:09:43.593Z,77030.47
2022-12-26T02:12:34.631Z,77036.59
2022-12-26T02:15:08.886Z,77040.66
2022-12-26T02:17:37.779Z,77036.59
2022-12-26T02:20:17.370Z,77038.63
2022-12-26T02:23:19.950Z,77036.59
2022-12-26T02:26:11.378Z,77040.66
2022-12-26T02:29:12.047Z,77038.63
2022-12-26T02:31:49.603Z,77040.66
2022-12-26T02:34:21.868Z,77040.66
2022-12-26T02:37:03.624Z,77048.81
2022-12-26T02:39:48.267Z,77044.75
2022-12-26T02:42:30.423Z,77056.97
2022-12-26T02:45:21.512Z,77059.00
2022-12-26T02:47:58.670Z,77071.25
2022-12-26T02:50:56.338Z,77081.44
2022-12-26T02:53:51.185Z,77079.41
2022-12-26T02:56:42.567Z,77085.53
2022-12-26T02:59:54.140Z,77077.38
2022-12-26T03:02:46.674Z,77087.56
2022-12-26T03:05:38.423Z,77101.84
2022-12-26T03:08:27.755Z,77093.69
2022-12-26T03:11:16.011Z,77077.38
2022-12-26T03:13:46.773Z,77065.13
2022-12-26T03:16:45.482Z,77044.75
2022-12-26T03:19:15.258Z,77040.66
2022-12-26T03:21:46.807Z,77040.66
2022-12-26T03:24:18.034Z,77042.69
2022-12-26T03:26:50.515Z,77044.75
2022-12-26T03:29:38.666Z,77042.69
2022-12-26T03:32:09.161Z,77040.66
2022-12-26T03:34:42.696Z,77036.59
2022-12-26T03:37:48.305Z,77038.63
2022-12-26T03:41:10.957Z,77038.63
2022-12-26T03:44:08.473Z,77044.75
2022-12-26T03:47:05.753Z,77056.97
2022-12-26T03:50:00.029Z,77073.28
2022-12-26T03:52:55.017Z,77089.59
2022-12-26T03:55:44.707Z,77093.69
2022-12-26T03:58:33.910Z,77085.53
2022-12-26T04:01:30.045Z,77077.38
2022-12-26T04:04:18.066Z,77073.28
2022-12-26T04:07:11.724Z,77073.28
2022-12-26T04:10:02.201Z,77071.25
2022-12-26T04:12:48.396Z,77085.53
2022-12-26T04:15:40.319Z,77097.75
2022-12-26T04:18:32.710Z,77099.81
2022-12-26T04:21:29.431Z,77095.72
2022-12-26T04:24:18.472Z,77085.53
2022-12-26T04:27:09.639Z,77081.44
2022-12-26T04:29:54.775Z,77075.31
2022-12-26T04:32:48.555Z,77067.16
2022-12-26T04:35:39.728Z,77061.06
2022-12-26T04:38:25.869Z,77061.06
2022-12-26T04:41:18.483Z,77050.84
2022-12-26T04:44:04.102Z,77042.69
2022-12-26T04:46:33.198Z,77040.66
2022-12-26T04:49:21.854Z,77042.69
2022-12-26T04:51:49.753Z,77040.66
2022-12-26T04:54:17.992Z,77040.66
2022-12-26T04:56:45.817Z,77036.59
2022-12-26T04:59:15.339Z,77044.75
2022-12-26T05:02:01.006Z,77059.00
2022-12-26T05:04:47.074Z,77081.44
2022-12-26T05:07:36.191Z,77097.75
2022-12-26T05:10:06.281Z,77105.91
2022-12-26T05:12:34.125Z,77116.13
2022-12-26T05:15:03.379Z,77130.41
2022-12-26T05:17:48.478Z,77138.56
2022-12-26T05:20:33.767Z,77154.88
2022-12-26T05:23:21.086Z,77163.03
2022-12-26T05:26:07.215Z,77163.03
2022-12-26T05:28:43.816Z,77169.16
2022-12-26T05:31:14.895Z,77187.50
2022-12-26T05:34:00.726Z,77199.72
2022-12-26T05:36:31.364Z,77214.00
2022-12-26T05:38:59.137Z,77220.13
2022-12-26T05:41:26.961Z,77220.13
2022-12-26T05:43:54.802Z,77224.22
2022-12-26T05:46:24.068Z,77214.00
2022-12-26T05:48:52.023Z,77216.03
2022-12-26T05:51:19.854Z,77216.03
2022-12-26T05:53:48.366Z,77218.09
2022-12-26T05:56:18.625Z,77224.22
2022-12-26T05:58:46.909Z,77224.22
2022-12-26T06:01:16.441Z,77218.09
2022-12-26T06:03:49.187Z,77232.38
2022-12-26T06:06:18.047Z,77228.28
2022-12-26T06:08:48.942Z,77218.09
2022-12-26T06:11:18.010Z,77226.25
2022-12-26T06:13:46.234Z,77226.25
2022-12-26T06:16:16.167Z,77222.16
2022-12-26T06:18:46.632Z,77224.22
2022-12-26T06:21:16.223Z,77232.38
2022-12-26T06:23:44.487Z,77228.28
2022-12-26T06:26:12.926Z,77238.47
2022-12-26T06:28:41.863Z,77240.53
2022-12-26T06:31:12.563Z,77236.44
2022-12-26T06:33:40.379Z,77242.56
2022-12-26T06:36:12.413Z,77238.47
2022-12-26T06:38:40.574Z,77236.44
2022-12-26T06:41:10.221Z,77238.47
2022-12-26T06:43:39.703Z,77236.44
2022-12-26T06:46:09.334Z,77244.59
2022-12-26T06:48:39.714Z,77252.75
2022-12-26T06:51:12.555Z,77254.78
2022-12-26T06:53:40.816Z,77248.69
2022-12-26T06:56:10.090Z,77240.53
2022-12-26T06:58:37.959Z,77236.44
2022-12-26T07:01:07.311Z,77250.72
2022-12-26T07:03:35.550Z,77254.78
2022-12-26T07:06:05.056Z,77256.84
2022-12-26T07:08:34.494Z,77269.06
2022-12-26T07:11:02.318Z,77277.22
2022-12-26T07:13:30.540Z,77279.28
2022-12-26T07:16:00.508Z,77281.31
2022-12-26T07:18:28.452Z,77277.22
2022-12-26T07:20:56.205Z,77273.16
2022-12-26T07:23:24.106Z,77271.13
2022-12-26T07:25:53.214Z,77271.13
2022-12-26T07:28:21.023Z,77277.22
2022-12-26T07:30:49.212Z,77285.38
2022-12-26T07:33:17.342Z,77285.38
2022-12-26T07:35:45.195Z,77281.31
2022-12-26T07:38:13.836Z,77281.31
2022-12-26T07:40:41.870Z,77281.31
2022-12-26T07:43:11.147Z,77273.16
2022-12-26T07:45:45.078Z,77279.28
2022-12-26T07:48:13.555Z,77285.38
2022-12-26T07:50:41.445Z,77289.47
2022-12-26T07:53:09.252Z,77285.38
2022-12-26T07:55:37.034Z,77283.34
2022-12-26T07:58:04.894Z,77281.31
2022-12-26T08:00:34.222Z,77281.31
2022-12-26T08:03:07.424Z,77279.28
2022-12-26T08:05:36.358Z,77283.34
2022-12-26T08:08:04.364Z,77293.53
2022-12-26T08:10:32.496Z,77277.22
2022-12-26T08:13:00.328Z,77271.13
2022-12-26T08:15:28.211Z,77265.00
2022-12-26T08:17:57.394Z,77244.59
2022-12-26T08:20:25.265Z,77240.53
2022-12-26T08:22:53.172Z,77238.47
2022-12-26T08:25:22.137Z,77252.75
2022-12-26T08:27:50.314Z,77258.88
2022-12-26T08:30:18.476Z,77250.72
2022-12-26T08:32:46.674Z,77238.47
2022-12-26T08:35:16.005Z,77236.44
2022-12-26T08:37:43.806Z,77234.41
2022-12-26T08:40:12.822Z,77224.22
2022-12-26T08:42:56.228Z,77214.00
2022-12-26T08:45:28.807Z,77199.72
2022-12-26T08:47:56.694Z,77201.78
2022-12-26T08:50:26.102Z,77183.41
2022-12-26T08:52:53.938Z,77163.03
2022-12-26T08:55:21.797Z,77142.63
2022-12-26T08:57:49.723Z,77122.22
2022-12-26T09:00:18.261Z,77105.91
2022-12-26T09:02:46.218Z,77101.84
2022-12-26T09:05:14.142Z,77089.59
2022-12-26T09:07:43.288Z,77067.16
2022-12-26T09:10:11.647Z,77044.75
2022-12-26T09:12:39.415Z,77026.38
2022-12-26T09:15:07.809Z,76991.72
2022-12-26T09:17:35.696Z,76959.09
2022-12-26T09:20:03.981Z,76926.47
2022-12-26T09:22:49.412Z,76891.78
2022-12-26T09:25:19.322Z,76887.72
2022-12-26T09:27:47.276Z,76877.50
2022-12-26T09:30:15.681Z,76842.84
2022-12-26T09:32:43.521Z,76824.50
2022-12-26T09:35:11.339Z,76771.47
2022-12-26T09:37:39.660Z,76740.88
2022-12-26T09:40:15.348Z,76724.56
2022-12-26T09:42:55.625Z,76718.47
2022-12-26T09:45:33.080Z,76702.16
2022-12-26T09:48:12.914Z,76661.38
2022-12-26T09:50:43.364Z,76645.03
2022-12-26T09:53:16.127Z,76636.91
2022-12-26T09:55:49.830Z,76636.91
2022-12-26T09:58:27.224Z,76663.41
2022-12-26T10:01:01.208Z,76677.69
2022-12-26T10:03:29.510Z,76679.72
2022-12-26T10:06:11.369Z,76685.81
2022-12-26T10:09:05.220Z,76673.59
2022-12-26T10:11:46.421Z,76661.38
2022-12-26T10:14:22.165Z,76620.56
2022-12-26T10:16:57.617Z,76612.41
2022-12-26T10:19:40.560Z,76565.53
2022-12-26T10:22:33.968Z,76565.53
2022-12-26T10:25:04.004Z,76559.41
2022-12-26T10:27:38.790Z,76563.47
2022-12-26T10:30:19.184Z,76563.47
2022-12-26T10:32:52.234Z,76551.25
2022-12-26T10:35:24.801Z,76547.16
2022-12-26T10:37:55.120Z,76559.41
2022-12-26T10:40:25.334Z,76561.44
2022-12-26T10:42:55.296Z,76573.69
2022-12-26T10:45:34.514Z,76575.72
2022-12-26T10:48:02.882Z,76567.56
2022-12-26T10:50:33.001Z,76559.41
2022-12-26T10:53:04.510Z,76551.25
2022-12-26T10:55:35.051Z,76536.97
2022-12-26T10:58:07.867Z,76543.09
2022-12-26T11:00:37.025Z,76530.84
2022-12-26T11:03:07.840Z,76526.78
2022-12-26T11:06:06.333Z,76518.63
2022-12-26T11:08:33.365Z,76510.47
2022-12-26T11:11:08.091Z,76498.22
2022-12-26T11:13:40.089Z,76455.41
2022-12-26T11:16:11.262Z,76441.16
2022-12-26T11:18:47.574Z,76424.84
2022-12-26T11:21:23.225Z,76422.78
2022-12-26T11:23:52.600Z,76400.38
2022-12-26T11:26:23.666Z,76400.38
2022-12-26T11:29:07.369Z,76414.63
2022-12-26T11:31:36.958Z,76420.75
2022-12-26T11:34:09.888Z,76414.63
2022-12-26T11:36:41.439Z,76414.63
2022-12-26T11:39:23.648Z,76404.44
2022-12-26T11:41:52.783Z,76396.28
2022-12-26T11:44:25.996Z,76392.22
2022-12-26T11:46:59.841Z,76384.06
2022-12-26T11:49:31.950Z,76384.06
2022-12-26T11:52:01.883Z,76373.84
2022-12-26T11:54:34.009Z,76367.75
2022-12-26T11:57:17.582Z,76353.47
2022-12-26T11:59:46.276Z,76337.16
2022-12-26T12:02:29.944Z,76318.81
2022-12-26T12:05:01.848Z,76288.22
2022-12-26T12:07:43.981Z,76253.56
2022-12-26T12:10:35.306Z,76208.69
2022-12-26T12:13:11.392Z,76172.00
2022-12-26T12:15:48.584Z,76151.63
2022-12-26T12:18:23.558Z,76121.03
2022-12-26T12:21:04.880Z,76088.41
2022-12-26T12:23:48.330Z,76066.00
2022-12-26T12:26:19.485Z,76049.69
2022-12-26T12:29:09.145Z,76041.53
2022-12-26T12:31:47.818Z,76021.13
2022-12-26T12:34:28.766Z,76000.75
2022-12-26T12:37:12.874Z,75978.31
2022-12-26T12:39:53.206Z,75968.13
2022-12-26T12:42:34.389Z,75951.81
2022-12-26T12:45:26.966Z,75933.47
2022-12-26T12:48:24.502Z,75923.28
2022-12-26T12:51:00.213Z,75915.13
2022-12-26T12:53:45.131Z,75911.03
2022-12-26T12:56:26.405Z,75898.81
2022-12-26T12:59:05.333Z,75894.75
2022-12-26T13:01:37.242Z,75892.69
2022-12-26T13:04:11.007Z,75880.47
2022-12-26T13:06:44.583Z,75870.28
2022-12-26T13:09:16.481Z,75868.22
2022-12-26T13:11:47.969Z,75878.44
2022-12-26T13:14:21.577Z,75870.28
2022-12-26T13:16:56.171Z,75882.50
2022-12-26T13:19:27.287Z,75890.66
2022-12-26T13:22:02.436Z,75876.38
2022-12-26T13:24:45.754Z,75882.50
2022-12-26T13:27:17.585Z,75884.53
2022-12-26T13:29:47.050Z,75882.50
2022-12-26T13:32:20.731Z,75882.50
2022-12-26T13:34:49.174Z,75880.47
2022-12-26T13:37:58.696Z,75862.13
2022-12-26T13:40:29.962Z,75841.72
2022-12-26T13:43:20.571Z,75849.88
2022-12-26T13:45:56.576Z,75858.03
2022-12-26T13:49:07.696Z,75866.19
2022-12-26T13:51:52.989Z,75864.16
2022-12-26T13:54:24.622Z,75860.06
2022-12-26T13:57:23.324Z,75853.97
2022-12-26T14:00:17.270Z,75868.22
2022-12-26T14:06:00.159Z,75890.66
2022-12-26T14:08:36.771Z,75896.78
2022-12-26T14:11:21.584Z,75915.13
2022-12-26T14:14:10.423Z,75931.44
2022-12-26T14:16:47.506Z,75939.59
2022-12-26T14:19:27.466Z,75943.66
2022-12-26T14:22:03.252Z,75966.09
2022-12-26T14:24:37.750Z,75978.31
2022-12-26T14:27:29.355Z,75990.56
2022-12-26T14:30:07.670Z,76008.91
2022-12-26T14:32:44.227Z,76037.44
2022-12-26T14:35:21.213Z,76070.06
2022-12-26T14:37:55.653Z,76090.44
2022-12-26T14:40:32.015Z,76127.16
2022-12-26T14:43:27.655Z,76143.47
2022-12-26T14:45:57.550Z,76159.78
2022-12-26T14:48:49.495Z,76174.03
2022-12-26T14:51:30.385Z,76188.31
2022-12-26T14:54:34.768Z,76216.84
2022-12-26T14:57:23.014Z,76229.09
2022-12-26T15:00:24.214Z,76237.25
2022-12-26T15:03:25.053Z,76249.47
2022-12-26T15:05:53.179Z,76263.75
2022-12-26T15:08:37.449Z,76269.88
2022-12-26T15:11:29.994Z,76271.91
2022-12-26T15:14:27.466Z,76282.09
2022-12-26T15:17:07.831Z,76269.88
2022-12-26T15:20:09.700Z,76259.69
2022-12-26T15:23:25.874Z,76257.63
2022-12-26T15:26:25.530Z,76251.53
2022-12-26T15:29:19.510Z,76245.41
2022-12-26T15:31:59.832Z,76241.31
2022-12-26T15:34:51.007Z,76220.94
2022-12-26T15:37:32.610Z,76216.84
2022-12-26T15:40:11.653Z,76216.84
2022-12-26T15:42:49.094Z,76235.22
2022-12-26T15:45:36.263Z,76237.25
2022-12-26T15:48:24.485Z,76233.16
2022-12-26T15:51:00.321Z,76249.47
2022-12-26T15:53:44.934Z,76261.72
2022-12-26T15:56:49.853Z,76233.16
2022-12-26T15:59:53.057Z,76233.16
2022-12-26T16:02:35.957Z,76257.63
2022-12-26T16:05:25.133Z,76265.78
2022-12-26T16:08:04.145Z,76269.88
2022-12-26T16:10:36.012Z,76278.03
2022-12-26T16:13:17.823Z,76286.19
2022-12-26T16:15:47.503Z,76302.50
2022-12-26T16:18:16.992Z,76306.56
2022-12-26T16:21:03.806Z,76306.56
2022-12-26T16:23:35.857Z,76316.75
2022-12-26T16:26:05.427Z,76320.84
2022-12-26T16:28:37.552Z,76322.88
2022-12-26T16:31:06.889Z,76331.03
2022-12-26T16:33:40.926Z,76345.31
2022-12-26T16:36:11.139Z,76351.44
2022-12-26T16:38:39.457Z,76355.50
2022-12-26T16:41:21.997Z,76353.47
2022-12-26T16:43:50.639Z,76355.50
2022-12-26T16:46:20.834Z,76367.75
2022-12-26T16:48:55.407Z,76367.75
2022-12-26T16:51:39.206Z,76365.69
2022-12-26T16:54:18.475Z,76375.91
2022-12-26T16:56:52.274Z,76388.13
2022-12-26T16:59:22.439Z,76400.38
2022-12-26T17:01:52.207Z,76400.38
2022-12-26T17:04:22.975Z,76392.22
2022-12-26T17:06:55.289Z,76412.59
2022-12-26T17:09:25.260Z,76408.53
2022-12-26T17:11:57.281Z,76402.41
2022-12-26T17:14:27.697Z,76384.06
2022-12-26T17:16:59.506Z,76388.13
2022-12-26T17:19:29.688Z,76388.13
2022-12-26T17:22:21.309Z,76394.25
2022-12-26T17:24:50.824Z,76392.22
2022-12-26T17:27:23.348Z,76384.06
2022-12-26T17:29:56.937Z,76394.25
2022-12-26T17:32:34.011Z,76402.41
2022-12-26T17:35:04.756Z,76408.53
2022-12-26T17:37:33.460Z,76408.53
2022-12-26T17:40:08.539Z,76412.59
2022-12-26T17:42:49.310Z,76412.59
2022-12-26T17:45:20.972Z,76410.56
2022-12-26T17:47:48.847Z,76416.69
2022-12-26T17:50:16.717Z,76404.44
2022-12-26T17:52:44.609Z,76400.38
2022-12-26T17:55:19.776Z,76398.31
2022-12-26T17:57:48.976Z,76402.41
2022-12-26T18:00:19.753Z,76400.38
2022-12-26T18:02:47.665Z,76404.44
2022-12-26T18:05:16.107Z,76414.63
2022-12-26T18:07:44.544Z,76420.75
2022-12-26T18:10:18.360Z,76420.75
2022-12-26T18:12:46.303Z,76422.78
2022-12-26T18:15:15.844Z,76416.69
2022-12-26T18:17:44.146Z,76410.56
2022-12-26T18:20:17.315Z,76412.59
2022-12-26T18:22:45.274Z,76412.59
2022-12-26T18:25:14.498Z,76412.59
2022-12-26T18:27:43.361Z,76412.59
2022-12-26T18:30:18.484Z,76408.53
2022-12-26T18:32:47.842Z,76398.31
2022-12-26T18:35:16.704Z,76386.09
2022-12-26T18:37:47.903Z,76390.16
2022-12-26T18:40:28.331Z,76388.13
2022-12-26T18:42:56.323Z,76402.41
2022-12-26T18:45:25.895Z,76404.44
2022-12-26T18:47:54.349Z,76420.75
2022-12-26T18:50:22.697Z,76424.84
2022-12-26T18:52:53.826Z,76412.59
2022-12-26T18:55:22.381Z,76406.47
2022-12-26T18:57:50.263Z,76394.25
2022-12-26T19:00:19.584Z,76400.38
2022-12-26T19:02:49.457Z,76412.59
2022-12-26T19:05:19.839Z,76408.53
2022-12-26T19:07:48.417Z,76402.41
2022-12-26T19:10:17.568Z,76392.22
2022-12-26T19:12:45.503Z,76379.97
2022-12-26T19:15:14.580Z,76382.00
2022-12-26T19:17:43.727Z,76384.06
2022-12-26T19:20:19.805Z,76392.22
2022-12-26T19:22:48.829Z,76396.28
2022-12-26T19:25:17.478Z,76392.22
2022-12-26T19:27:45.678Z,76379.97
2022-12-26T19:30:14.619Z,76361.63
2022-12-26T19:32:43.261Z,76363.66
2022-12-26T19:35:12.843Z,76371.81
2022-12-26T19:37:40.683Z,76367.75
2022-12-26T19:40:10.099Z,76361.63
2022-12-26T19:42:38.431Z,76363.66
2022-12-26T19:45:07.768Z,76357.53
2022-12-26T19:47:35.897Z,76363.66
2022-12-26T19:50:05.457Z,76355.50
2022-12-26T19:52:36.497Z,76363.66
2022-12-26T19:55:04.675Z,76355.50
2022-12-26T19:57:32.702Z,76359.59
2022-12-26T20:00:00.558Z,76373.84
2022-12-26T20:02:28.510Z,76379.97
2022-12-26T20:04:56.398Z,76379.97
2022-12-26T20:07:24.276Z,76382.00
2022-12-26T20:09:53.474Z,76379.97
2022-12-26T20:12:21.467Z,76365.69
2022-12-26T20:14:49.309Z,76359.59
2022-12-26T20:17:17.234Z,76363.66
2022-12-26T20:19:47.423Z,76333.06
2022-12-26T20:22:15.269Z,76339.19
2022-12-26T20:24:43.108Z,76326.97
2022-12-26T20:27:13.599Z,76337.16
2022-12-26T20:29:41.422Z,76322.88
2022-12-26T20:32:09.340Z,76310.66
2022-12-26T20:34:37.121Z,76306.56
2022-12-26T20:37:05.157Z,76306.56
2022-12-26T20:39:33.055Z,76320.84
2022-12-26T20:42:00.856Z,76318.81
2022-12-26T20:44:31.061Z,76322.88
2022-12-26T20:46:58.982Z,76320.84
2022-12-26T20:49:29.104Z,76331.03
2022-12-26T20:51:56.916Z,76333.06
2022-12-26T20:54:25.445Z,76335.13
2022-12-26T20:56:53.388Z,76341.22
2022-12-26T20:59:21.152Z,76349.38
2022-12-26T21:01:50.457Z,76353.47
2022-12-26T21:04:20.524Z,76355.50
2022-12-26T21:06:50.343Z,76343.28
2022-12-26T21:09:18.388Z,76339.19
2022-12-26T21:11:46.369Z,76337.16
2022-12-26T21:14:16.447Z,76335.13
2022-12-26T21:16:46.679Z,76341.22
2022-12-26T21:19:16.996Z,76339.19
2022-12-26T21:21:46.645Z,76339.19
2022-12-26T21:24:16.596Z,76339.19
2022-12-26T21:26:45.766Z,76322.88
2022-12-26T21:29:15.870Z,76314.72
2022-12-26T21:31:44.334Z,76329.00
2022-12-26T21:34:16.298Z,76326.97
2022-12-26T21:37:05.168Z,76343.28
2022-12-26T21:39:34.359Z,76353.47
2022-12-26T21:42:03.989Z,76367.75
2022-12-26T21:44:31.901Z,76375.91
2022-12-26T21:46:59.948Z,76371.81
2022-12-26T21:49:29.520Z,76375.91
2022-12-26T21:51:57.342Z,76384.06
2022-12-26T21:54:48.788Z,76400.38
2022-12-26T21:57:17.226Z,76400.38
2022-12-26T21:59:58.170Z,76414.63
2022-12-26T22:02:54.438Z,76432.97
2022-12-26T22:05:26.861Z,76437.06
2022-12-26T22:07:56.196Z,76435.03
2022-12-26T22:10:42.386Z,76437.06
2022-12-26T22:13:10.412Z,76443.19
2022-12-26T22:16:00.263Z,76445.22
2022-12-26T22:18:28.342Z,76445.22
2022-12-26T22:20:57.601Z,76447.25
2022-12-26T22:23:25.464Z,76457.44
2022-12-26T22:25:54.801Z,76449.28
2022-12-26T22:28:23.678Z,76439.09
2022-12-26T22:30:52.492Z,76441.16
2022-12-26T22:33:20.877Z,76432.97
2022-12-26T22:35:49.082Z,76430.94
2022-12-26T22:38:18.448Z,76432.97
2022-12-26T22:40:54.968Z,76437.06
2022-12-26T22:43:23.323Z,76441.16
2022-12-26T22:45:51.194Z,76441.16
2022-12-26T22:48:19.422Z,76435.03
2022-12-26T22:50:49.611Z,76435.03
2022-12-26T22:53:18.944Z,76445.22
2022-12-26T22:55:48.644Z,76447.25
2022-12-26T22:58:17.771Z,76443.19
2022-12-26T23:00:46.463Z,76445.22
2022-12-26T23:03:15.229Z,76447.25
2022-12-26T23:05:43.617Z,76441.16
2022-12-26T23:08:17.391Z,76445.22
2022-12-26T23:10:47.780Z,76445.22
2022-12-26T23:13:17.519Z,76445.22
2022-12-26T23:15:55.065Z,76445.22
2022-12-26T23:18:49.204Z,76432.97
2022-12-26T23:21:41.421Z,76432.97
2022-12-26T23:24:13.450Z,76420.75
2022-12-26T23:26:44.940Z,76428.91
2022-12-26T23:29:31.165Z,76426.88
2022-12-26T23:31:59.205Z,76416.69
2022-12-26T23:34:27.743Z,76406.47
2022-12-26T23:36:55.648Z,76416.69
2022-12-26T23:39:23.474Z,76428.91
2022-12-26T23:41:52.705Z,76432.97
2022-12-26T23:44:20.711Z,76424.84
2022-12-26T23:46:48.676Z,76420.75
2022-12-26T23:49:17.169Z,76430.94
2022-12-26T23:51:45.018Z,76437.06
2022-12-26T23:54:12.839Z,76445.22
2022-12-26T23:56:40.661Z,76455.41
2022-12-26T23:59:09.963Z,76455.41
